sensor_id;sensor_type;location;lat;lon;timestamp;temperature;humidity
13198;DHT22;6664;52.514;13.440;2022-08-07T00:00:24;13.80;64.60
13198;DHT22;6664;52.514;13.440;2022-08-07T00:02:51;13.80;65.40
13198;DHT22;6664;52.514;13.440;2022-08-07T00:05:20;13.80;65.40
13198;DHT22;6664;52.514;13.440;2022-08-07T00:07:50;13.70;65.60
13198;DHT22;6664;52.514;13.440;2022-08-07T00:10:28;13.80;65.40
13198;DHT22;6664;52.514;13.440;2022-08-07T00:13:00;13.70;65.40
13198;DHT22;6664;52.514;13.440;2022-08-07T00:15:48;13.80;64.70
13198;DHT22;6664;52.514;13.440;2022-08-07T00:18:20;13.80;65.50
13198;DHT22;6664;52.514;13.440;2022-08-07T00:20:52;13.70;66.00
13198;DHT22;6664;52.514;13.440;2022-08-07T00:23:19;13.70;67.00
13198;DHT22;6664;52.514;13.440;2022-08-07T00:25:48;13.60;66.50
13198;DHT22;6664;52.514;13.440;2022-08-07T00:28:29;13.60;66.30
13198;DHT22;6664;52.514;13.440;2022-08-07T00:31:11;13.60;65.70
13198;DHT22;6664;52.514;13.440;2022-08-07T00:33:43;13.70;65.40
13198;DHT22;6664;52.514;13.440;2022-08-07T00:36:13;13.80;65.50
13198;DHT22;6664;52.514;13.440;2022-08-07T00:38:42;13.90;64.40
13198;DHT22;6664;52.514;13.440;2022-08-07T00:41:09;14.00;64.00
13198;DHT22;6664;52.514;13.440;2022-08-07T00:43:41;14.00;63.90
13198;DHT22;6664;52.514;13.440;2022-08-07T00:46:30;14.00;63.90
13198;DHT22;6664;52.514;13.440;2022-08-07T00:48:59;14.00;63.70
13198;DHT22;6664;52.514;13.440;2022-08-07T00:51:29;13.90;65.10
13198;DHT22;6664;52.514;13.440;2022-08-07T00:54:16;13.80;64.90
13198;DHT22;6664;52.514;13.440;2022-08-07T00:56:46;13.80;65.40
13198;DHT22;6664;52.514;13.440;2022-08-07T00:59:19;13.70;65.40
13198;DHT22;6664;52.514;13.440;2022-08-07T01:02:02;13.70;66.50
13198;DHT22;6664;52.514;13.440;2022-08-07T01:04:35;13.60;66.70
13198;DHT22;6664;52.514;13.440;2022-08-07T01:07:09;13.50;67.00
13198;DHT22;6664;52.514;13.440;2022-08-07T01:09:36;13.50;67.90
13198;DHT22;6664;52.514;13.440;2022-08-07T01:12:23;13.40;68.00
13198;DHT22;6664;52.514;13.440;2022-08-07T01:14:56;13.40;68.40
13198;DHT22;6664;52.514;13.440;2022-08-07T01:17:29;13.30;68.80
13198;DHT22;6664;52.514;13.440;2022-08-07T01:20:03;13.30;69.70
13198;DHT22;6664;52.514;13.440;2022-08-07T01:22:32;13.20;70.10
13198;DHT22;6664;52.514;13.440;2022-08-07T01:24:59;13.40;69.10
13198;DHT22;6664;52.514;13.440;2022-08-07T01:27:49;13.40;69.30
13198;DHT22;6664;52.514;13.440;2022-08-07T01:30:17;13.40;68.90
13198;DHT22;6664;52.514;13.440;2022-08-07T01:32:47;13.40;68.90
13198;DHT22;6664;52.514;13.440;2022-08-07T01:35:14;13.40;68.90
13198;DHT22;6664;52.514;13.440;2022-08-07T01:37:45;13.50;68.70
13198;DHT22;6664;52.514;13.440;2022-08-07T01:40:18;13.60;68.60
13198;DHT22;6664;52.514;13.440;2022-08-07T01:42:46;13.50;68.70
13198;DHT22;6664;52.514;13.440;2022-08-07T01:45:23;13.50;69.00
13198;DHT22;6664;52.514;13.440;2022-08-07T01:48:07;13.40;69.40
13198;DHT22;6664;52.514;13.440;2022-08-07T01:50:51;13.30;69.80
13198;DHT22;6664;52.514;13.440;2022-08-07T01:53:22;13.30;70.30
13198;DHT22;6664;52.514;13.440;2022-08-07T01:56:23;13.20;70.40
13198;DHT22;6664;52.514;13.440;2022-08-07T01:59:02;13.20;71.30
13198;DHT22;6664;52.514;13.440;2022-08-07T02:01:34;13.10;71.50
13198;DHT22;6664;52.514;13.440;2022-08-07T02:04:35;13.10;72.10
13198;DHT22;6664;52.514;13.440;2022-08-07T02:07:05;13.00;72.70
13198;DHT22;6664;52.514;13.440;2022-08-07T02:09:33;13.00;73.30
13198;DHT22;6664;52.514;13.440;2022-08-07T02:12:22;12.90;73.40
13198;DHT22;6664;52.514;13.440;2022-08-07T02:14:57;12.90;74.10
13198;DHT22;6664;52.514;13.440;2022-08-07T02:17:32;12.80;74.50
13198;DHT22;6664;52.514;13.440;2022-08-07T02:20:05;12.70;74.70
13198;DHT22;6664;52.514;13.440;2022-08-07T02:22:49;12.70;75.00
13198;DHT22;6664;52.514;13.440;2022-08-07T02:25:24;12.70;75.60
13198;DHT22;6664;52.514;13.440;2022-08-07T02:28:13;12.70;76.00
13198;DHT22;6664;52.514;13.440;2022-08-07T02:30:56;12.70;76.70
13198;DHT22;6664;52.514;13.440;2022-08-07T02:33:25;12.70;77.10
13198;DHT22;6664;52.514;13.440;2022-08-07T02:36:13;12.60;77.40
13198;DHT22;6664;52.514;13.440;2022-08-07T02:39:02;12.70;77.80
13198;DHT22;6664;52.514;13.440;2022-08-07T02:41:44;12.60;77.90
13198;DHT22;6664;52.514;13.440;2022-08-07T02:44:22;12.60;78.00
13198;DHT22;6664;52.514;13.440;2022-08-07T02:47:01;12.50;78.30
13198;DHT22;6664;52.514;13.440;2022-08-07T02:49:34;12.50;79.10
13198;DHT22;6664;52.514;13.440;2022-08-07T02:52:29;12.50;79.30
13198;DHT22;6664;52.514;13.440;2022-08-07T02:55:06;12.50;79.90
13198;DHT22;6664;52.514;13.440;2022-08-07T02:57:57;12.50;79.90
13198;DHT22;6664;52.514;13.440;2022-08-07T03:00:32;12.40;79.80
13198;DHT22;6664;52.514;13.440;2022-08-07T03:03:03;12.40;80.70
13198;DHT22;6664;52.514;13.440;2022-08-07T03:05:32;12.40;81.10
13198;DHT22;6664;52.514;13.440;2022-08-07T03:08:04;12.40;81.20
13198;DHT22;6664;52.514;13.440;2022-08-07T03:10:37;12.30;81.60
13198;DHT22;6664;52.514;13.440;2022-08-07T03:13:16;12.30;82.00
13198;DHT22;6664;52.514;13.440;2022-08-07T03:15:45;12.30;82.80
13198;DHT22;6664;52.514;13.440;2022-08-07T03:18:22;12.30;82.70
13198;DHT22;6664;52.514;13.440;2022-08-07T03:21:01;12.30;83.20
13198;DHT22;6664;52.514;13.440;2022-08-07T03:23:31;12.20;83.30
13198;DHT22;6664;52.514;13.440;2022-08-07T03:26:23;12.20;83.60
13198;DHT22;6664;52.514;13.440;2022-08-07T03:28:50;12.20;84.30
13198;DHT22;6664;52.514;13.440;2022-08-07T03:31:25;12.20;84.70
13198;DHT22;6664;52.514;13.440;2022-08-07T03:34:10;12.20;85.30
13198;DHT22;6664;52.514;13.440;2022-08-07T03:36:50;12.10;85.40
13198;DHT22;6664;52.514;13.440;2022-08-07T03:39:21;12.20;85.60
13198;DHT22;6664;52.514;13.440;2022-08-07T03:42:09;12.10;85.70
13198;DHT22;6664;52.514;13.440;2022-08-07T03:44:38;12.20;86.30
13198;DHT22;6664;52.514;13.440;2022-08-07T03:47:06;12.20;86.40
13198;DHT22;6664;52.514;13.440;2022-08-07T03:49:41;12.20;87.00
13198;DHT22;6664;52.514;13.440;2022-08-07T03:52:21;12.10;86.80
13198;DHT22;6664;52.514;13.440;2022-08-07T03:55:02;12.20;87.10
13198;DHT22;6664;52.514;13.440;2022-08-07T03:57:34;12.10;88.00
13198;DHT22;6664;52.514;13.440;2022-08-07T04:00:24;12.20;87.60
13198;DHT22;6664;52.514;13.440;2022-08-07T04:03:01;12.20;87.90
13198;DHT22;6664;52.514;13.440;2022-08-07T04:05:33;12.20;87.90
13198;DHT22;6664;52.514;13.440;2022-08-07T04:08:16;12.20;88.10
13198;DHT22;6664;52.514;13.440;2022-08-07T04:10:47;12.20;88.70
13198;DHT22;6664;52.514;13.440;2022-08-07T04:13:37;12.20;88.60
13198;DHT22;6664;52.514;13.440;2022-08-07T04:16:27;12.20;88.90
13198;DHT22;6664;52.514;13.440;2022-08-07T04:18:58;12.20;89.00
13198;DHT22;6664;52.514;13.440;2022-08-07T04:21:30;12.30;89.10
13198;DHT22;6664;52.514;13.440;2022-08-07T04:24:00;12.30;89.00
13198;DHT22;6664;52.514;13.440;2022-08-07T04:26:33;12.30;89.20
13198;DHT22;6664;52.514;13.440;2022-08-07T04:29:00;12.30;89.10
13198;DHT22;6664;52.514;13.440;2022-08-07T04:31:31;12.40;88.90
13198;DHT22;6664;52.514;13.440;2022-08-07T04:34:20;12.40;89.00
13198;DHT22;6664;52.514;13.440;2022-08-07T04:36:55;12.40;89.00
13198;DHT22;6664;52.514;13.440;2022-08-07T04:39:24;12.50;89.40
13198;DHT22;6664;52.514;13.440;2022-08-07T04:41:54;12.60;88.80
13198;DHT22;6664;52.514;13.440;2022-08-07T04:44:23;12.60;88.70
13198;DHT22;6664;52.514;13.440;2022-08-07T04:47:06;12.60;88.60
13198;DHT22;6664;52.514;13.440;2022-08-07T04:49:42;12.60;88.80
13198;DHT22;6664;52.514;13.440;2022-08-07T04:52:48;12.70;88.70
13198;DHT22;6664;52.514;13.440;2022-08-07T04:59:01;12.80;88.80
13198;DHT22;6664;52.514;13.440;2022-08-07T05:01:58;12.90;88.00
13198;DHT22;6664;52.514;13.440;2022-08-07T05:04:48;12.90;86.50
13198;DHT22;6664;52.514;13.440;2022-08-07T05:07:28;12.90;86.60
13198;DHT22;6664;52.514;13.440;2022-08-07T05:10:05;13.00;87.00
13198;DHT22;6664;52.514;13.440;2022-08-07T05:12:56;13.10;85.10
13198;DHT22;6664;52.514;13.440;2022-08-07T05:15:47;13.10;84.40
13198;DHT22;6664;52.514;13.440;2022-08-07T05:18:26;13.20;84.10
13198;DHT22;6664;52.514;13.440;2022-08-07T05:21:01;13.30;83.30
13198;DHT22;6664;52.514;13.440;2022-08-07T05:23:36;13.40;81.70
13198;DHT22;6664;52.514;13.440;2022-08-07T05:26:10;13.40;80.90
13198;DHT22;6664;52.514;13.440;2022-08-07T05:28:55;13.50;79.70
13198;DHT22;6664;52.514;13.440;2022-08-07T05:31:26;13.60;79.90
13198;DHT22;6664;52.514;13.440;2022-08-07T05:34:05;13.60;78.80
13198;DHT22;6664;52.514;13.440;2022-08-07T05:36:39;13.70;79.00
13198;DHT22;6664;52.514;13.440;2022-08-07T05:39:09;13.80;77.90
13198;DHT22;6664;52.514;13.440;2022-08-07T05:41:57;13.80;77.40
13198;DHT22;6664;52.514;13.440;2022-08-07T05:44:33;13.90;76.20
13198;DHT22;6664;52.514;13.440;2022-08-07T05:47:03;14.00;75.10
13198;DHT22;6664;52.514;13.440;2022-08-07T05:49:47;14.00;74.70
13198;DHT22;6664;52.514;13.440;2022-08-07T05:52:17;14.10;73.90
13198;DHT22;6664;52.514;13.440;2022-08-07T05:54:46;14.20;73.60
13198;DHT22;6664;52.514;13.440;2022-08-07T05:57:25;14.20;73.40
13198;DHT22;6664;52.514;13.440;2022-08-07T05:59:57;14.30;73.60
13198;DHT22;6664;52.514;13.440;2022-08-07T06:02:29;14.30;72.80
13198;DHT22;6664;52.514;13.440;2022-08-07T06:05:09;14.30;71.30
13198;DHT22;6664;52.514;13.440;2022-08-07T06:07:42;14.50;71.40
13198;DHT22;6664;52.514;13.440;2022-08-07T06:10:29;14.50;69.60
13198;DHT22;6664;52.514;13.440;2022-08-07T06:12:56;14.60;69.50
13198;DHT22;6664;52.514;13.440;2022-08-07T06:15:28;14.60;69.20
13198;DHT22;6664;52.514;13.440;2022-08-07T06:18:11;14.60;69.50
13198;DHT22;6664;52.514;13.440;2022-08-07T06:20:41;14.80;66.90
13198;DHT22;6664;52.514;13.440;2022-08-07T06:23:31;15.00;67.30
13198;DHT22;6664;52.514;13.440;2022-08-07T06:26:18;15.00;66.20
13198;DHT22;6664;52.514;13.440;2022-08-07T06:28:51;15.10;66.00
13198;DHT22;6664;52.514;13.440;2022-08-07T06:31:19;15.20;64.90
13198;DHT22;6664;52.514;13.440;2022-08-07T06:33:52;15.20;64.00
13198;DHT22;6664;52.514;13.440;2022-08-07T06:36:22;15.40;63.30
13198;DHT22;6664;52.514;13.440;2022-08-07T06:39:03;15.40;62.60
13198;DHT22;6664;52.514;13.440;2022-08-07T06:44:29;15.50;63.00
13198;DHT22;6664;52.514;13.440;2022-08-07T06:47:05;15.70;61.30
13198;DHT22;6664;52.514;13.440;2022-08-07T06:49:42;15.70;60.70
13198;DHT22;6664;52.514;13.440;2022-08-07T06:52:19;15.80;61.20
13198;DHT22;6664;52.514;13.440;2022-08-07T06:55:21;15.90;59.60
13198;DHT22;6664;52.514;13.440;2022-08-07T06:58:10;16.00;58.80
13198;DHT22;6664;52.514;13.440;2022-08-07T07:00:40;16.00;58.10
13198;DHT22;6664;52.514;13.440;2022-08-07T07:03:08;16.00;58.20
13198;DHT22;6664;52.514;13.440;2022-08-07T07:05:40;16.10;58.50
13198;DHT22;6664;52.514;13.440;2022-08-07T07:08:28;16.10;58.00
13198;DHT22;6664;52.514;13.440;2022-08-07T07:11:00;16.10;57.30
13198;DHT22;6664;52.514;13.440;2022-08-07T07:13:46;16.20;57.10
13198;DHT22;6664;52.514;13.440;2022-08-07T07:16:29;16.30;56.50
13198;DHT22;6664;52.514;13.440;2022-08-07T07:19:03;16.30;56.40
13198;DHT22;6664;52.514;13.440;2022-08-07T07:21:52;16.30;56.10
13198;DHT22;6664;52.514;13.440;2022-08-07T07:24:41;16.30;55.60
13198;DHT22;6664;52.514;13.440;2022-08-07T07:27:29;16.40;55.70
13198;DHT22;6664;52.514;13.440;2022-08-07T07:30:21;16.40;55.40
13198;DHT22;6664;52.514;13.440;2022-08-07T07:33:04;16.50;54.50
13198;DHT22;6664;52.514;13.440;2022-08-07T07:35:34;16.60;54.20
13198;DHT22;6664;52.514;13.440;2022-08-07T07:38:26;16.60;54.00
13198;DHT22;6664;52.514;13.440;2022-08-07T07:40:57;16.60;53.90
13198;DHT22;6664;52.514;13.440;2022-08-07T07:43:29;16.80;54.00
13198;DHT22;6664;52.514;13.440;2022-08-07T07:46:17;16.80;53.10
13198;DHT22;6664;52.514;13.440;2022-08-07T07:49:07;17.00;51.90
13198;DHT22;6664;52.514;13.440;2022-08-07T07:51:58;17.10;50.70
13198;DHT22;6664;52.514;13.440;2022-08-07T07:54:27;17.10;50.80
13198;DHT22;6664;52.514;13.440;2022-08-07T07:56:56;17.00;50.50
13198;DHT22;6664;52.514;13.440;2022-08-07T07:59:24;17.10;51.60
13198;DHT22;6664;52.514;13.440;2022-08-07T08:02:13;17.00;51.20
13198;DHT22;6664;52.514;13.440;2022-08-07T08:05:03;17.00;51.10
13198;DHT22;6664;52.514;13.440;2022-08-07T08:07:31;17.10;51.30
13198;DHT22;6664;52.514;13.440;2022-08-07T08:10:13;17.20;50.70
13198;DHT22;6664;52.514;13.440;2022-08-07T08:13:00;17.20;51.70
13198;DHT22;6664;52.514;13.440;2022-08-07T08:15:32;17.30;51.10
13198;DHT22;6664;52.514;13.440;2022-08-07T08:18:22;17.40;50.20
13198;DHT22;6664;52.514;13.440;2022-08-07T08:20:50;17.40;49.80
13198;DHT22;6664;52.514;13.440;2022-08-07T08:23:22;17.40;48.90
13198;DHT22;6664;52.514;13.440;2022-08-07T08:26:09;17.40;47.80
13198;DHT22;6664;52.514;13.440;2022-08-07T08:28:58;17.40;48.20
13198;DHT22;6664;52.514;13.440;2022-08-07T08:31:32;17.60;48.00
13198;DHT22;6664;52.514;13.440;2022-08-07T08:34:22;17.60;48.00
13198;DHT22;6664;52.514;13.440;2022-08-07T08:36:56;17.60;48.00
13198;DHT22;6664;52.514;13.440;2022-08-07T08:39:27;17.60;48.00
13198;DHT22;6664;52.514;13.440;2022-08-07T08:42:28;17.70;48.10
13198;DHT22;6664;52.514;13.440;2022-08-07T08:50:24;17.90;45.70
13198;DHT22;6664;52.514;13.440;2022-08-07T08:53:20;18.00;44.90
13198;DHT22;6664;52.514;13.440;2022-08-07T08:58:34;18.20;43.60
13198;DHT22;6664;52.514;13.440;2022-08-07T09:01:12;18.50;42.80
13198;DHT22;6664;52.514;13.440;2022-08-07T09:24:25;20.00;39.40
13198;DHT22;6664;52.514;13.440;2022-08-07T09:27:32;20.30;39.70
13198;DHT22;6664;52.514;13.440;2022-08-07T09:36:38;20.90;36.30
13198;DHT22;6664;52.514;13.440;2022-08-07T09:39:21;21.00;35.00
13198;DHT22;6664;52.514;13.440;2022-08-07T09:42:33;20.90;35.30
13198;DHT22;6664;52.514;13.440;2022-08-07T09:48:26;20.70;34.60
13198;DHT22;6664;52.514;13.440;2022-08-07T09:54:48;20.70;34.50
13198;DHT22;6664;52.514;13.440;2022-08-07T09:57:31;20.70;33.40
13198;DHT22;6664;52.514;13.440;2022-08-07T10:00:14;20.80;33.10
13198;DHT22;6664;52.514;13.440;2022-08-07T10:05:43;21.20;32.40
13198;DHT22;6664;52.514;13.440;2022-08-07T10:19:45;22.60;29.00
13198;DHT22;6664;52.514;13.440;2022-08-07T10:45:37;23.90;26.30
13198;DHT22;6664;52.514;13.440;2022-08-07T10:48:35;23.60;26.40
13198;DHT22;6664;52.514;13.440;2022-08-07T10:51:52;23.80;26.40
13198;DHT22;6664;52.514;13.440;2022-08-07T11:03:06;23.70;26.70
13198;DHT22;6664;52.514;13.440;2022-08-07T11:08:25;24.00;25.40
13198;DHT22;6664;52.514;13.440;2022-08-07T11:11:13;23.70;25.50
13198;DHT22;6664;52.514;13.440;2022-08-07T11:14:02;23.70;25.10
13198;DHT22;6664;52.514;13.440;2022-08-07T11:16:55;23.90;25.20
13198;DHT22;6664;52.514;13.440;2022-08-07T11:19:49;24.10;25.30
13198;DHT22;6664;52.514;13.440;2022-08-07T11:22:32;24.50;24.30
13198;DHT22;6664;52.514;13.440;2022-08-07T11:25:35;24.50;24.10
13198;DHT22;6664;52.514;13.440;2022-08-07T11:28:20;24.60;24.70
13198;DHT22;6664;52.514;13.440;2022-08-07T11:30:52;24.40;24.30
13198;DHT22;6664;52.514;13.440;2022-08-07T11:33:40;24.30;24.30
13198;DHT22;6664;52.514;13.440;2022-08-07T11:42:25;24.80;23.20
13198;DHT22;6664;52.514;13.440;2022-08-07T11:45:17;25.20;23.30
13198;DHT22;6664;52.514;13.440;2022-08-07T11:59:44;25.20;22.80
13198;DHT22;6664;52.514;13.440;2022-08-07T12:05:42;25.00;22.50
13198;DHT22;6664;52.514;13.440;2022-08-07T12:08:36;25.20;22.80
13198;DHT22;6664;52.514;13.440;2022-08-07T12:14:54;25.20;22.30
13198;DHT22;6664;52.514;13.440;2022-08-07T12:17:32;25.40;21.80
13198;DHT22;6664;52.514;13.440;2022-08-07T12:20:21;25.50;22.50
13198;DHT22;6664;52.514;13.440;2022-08-07T12:26:18;26.10;21.30
13198;DHT22;6664;52.514;13.440;2022-08-07T12:29:18;26.60;21.00
13198;DHT22;6664;52.514;13.440;2022-08-07T12:32:18;27.50;20.00
13198;DHT22;6664;52.514;13.440;2022-08-07T12:34:49;29.20;17.70
13198;DHT22;6664;52.514;13.440;2022-08-07T12:37:23;30.20;15.10
13198;DHT22;6664;52.514;13.440;2022-08-07T12:40:15;31.20;13.50
13198;DHT22;6664;52.514;13.440;2022-08-07T12:43:05;35.40;12.00
13198;DHT22;6664;52.514;13.440;2022-08-07T12:45:51;41.40;6.20
13198;DHT22;6664;52.514;13.440;2022-08-07T12:48:38;43.50;1.00
13198;DHT22;6664;52.514;13.440;2022-08-07T12:51:23;43.70;1.00
13198;DHT22;6664;52.514;13.440;2022-08-07T12:54:20;47.00;1.00
13198;DHT22;6664;52.514;13.440;2022-08-07T12:57:05;49.50;1.00
13198;DHT22;6664;52.514;13.440;2022-08-07T12:59:36;49.70;1.00
13198;DHT22;6664;52.514;13.440;2022-08-07T13:08:42;54.20;1.00
13198;DHT22;6664;52.514;13.440;2022-08-07T13:17:32;62.10;1.00
13198;DHT22;6664;52.514;13.440;2022-08-07T13:20:29;63.70;1.00
13198;DHT22;6664;52.514;13.440;2022-08-07T13:23:06;63.90;1.00
13198;DHT22;6664;52.514;13.440;2022-08-07T13:26:06;60.70;1.00
13198;DHT22;6664;52.514;13.440;2022-08-07T13:28:49;63.60;1.00
13198;DHT22;6664;52.514;13.440;2022-08-07T13:31:48;64.70;1.00
13198;DHT22;6664;52.514;13.440;2022-08-07T13:34:42;64.20;1.00
13198;DHT22;6664;52.514;13.440;2022-08-07T13:37:38;64.10;1.00
13198;DHT22;6664;52.514;13.440;2022-08-07T13:43:10;53.90;1.00
13198;DHT22;6664;52.514;13.440;2022-08-07T13:45:44;45.90;1.00
13198;DHT22;6664;52.514;13.440;2022-08-07T13:48:33;41.90;1.00
13198;DHT22;6664;52.514;13.440;2022-08-07T13:51:05;44.90;1.00
13198;DHT22;6664;52.514;13.440;2022-08-07T13:54:02;49.60;1.00
13198;DHT22;6664;52.514;13.440;2022-08-07T13:56:32;53.40;1.00
13198;DHT22;6664;52.514;13.440;2022-08-07T13:59:17;47.30;1.00
13198;DHT22;6664;52.514;13.440;2022-08-07T14:01:58;41.40;1.00
13198;DHT22;6664;52.514;13.440;2022-08-07T14:04:53;36.40;1.00
13198;DHT22;6664;52.514;13.440;2022-08-07T14:07:26;34.30;2.70
13198;DHT22;6664;52.514;13.440;2022-08-07T14:09:58;33.70;4.20
13198;DHT22;6664;52.514;13.440;2022-08-07T14:13:05;32.90;4.90
13198;DHT22;6664;52.514;13.440;2022-08-07T14:15:40;32.00;6.20
13198;DHT22;6664;52.514;13.440;2022-08-07T14:18:23;31.20;7.20
13198;DHT22;6664;52.514;13.440;2022-08-07T14:21:31;30.60;8.20
13198;DHT22;6664;52.514;13.440;2022-08-07T14:24:29;30.50;9.70
13198;DHT22;6664;52.514;13.440;2022-08-07T14:27:02;29.90;10.10
13198;DHT22;6664;52.514;13.440;2022-08-07T14:29:55;29.50;10.80
13198;DHT22;6664;52.514;13.440;2022-08-07T14:32:55;28.90;11.40
13198;DHT22;6664;52.514;13.440;2022-08-07T14:35:27;28.10;12.50
13198;DHT22;6664;52.514;13.440;2022-08-07T14:38:13;27.50;13.20
13198;DHT22;6664;52.514;13.440;2022-08-07T14:40:58;27.20;13.70
13198;DHT22;6664;52.514;13.440;2022-08-07T14:43:33;27.70;13.60
13198;DHT22;6664;52.514;13.440;2022-08-07T14:46:24;27.80;13.70
13198;DHT22;6664;52.514;13.440;2022-08-07T14:49:00;27.50;13.80
13198;DHT22;6664;52.514;13.440;2022-08-07T14:51:48;27.30;15.00
13198;DHT22;6664;52.514;13.440;2022-08-07T14:54:35;27.50;14.70
13198;DHT22;6664;52.514;13.440;2022-08-07T14:57:11;30.00;12.00
13198;DHT22;6664;52.514;13.440;2022-08-07T14:59:45;28.20;13.20
13198;DHT22;6664;52.514;13.440;2022-08-07T15:02:32;28.50;13.40
13198;DHT22;6664;52.514;13.440;2022-08-07T15:05:06;28.30;12.90
13198;DHT22;6664;52.514;13.440;2022-08-07T15:07:49;27.50;13.80
13198;DHT22;6664;52.514;13.440;2022-08-07T15:10:21;26.80;15.10
13198;DHT22;6664;52.514;13.440;2022-08-07T15:13:00;26.20;15.60
13198;DHT22;6664;52.514;13.440;2022-08-07T15:15:38;25.80;16.40
13198;DHT22;6664;52.514;13.440;2022-08-07T15:18:10;25.50;16.90
13198;DHT22;6664;52.514;13.440;2022-08-07T15:20:58;25.50;17.20
13198;DHT22;6664;52.514;13.440;2022-08-07T15:23:36;25.50;17.20
13198;DHT22;6664;52.514;13.440;2022-08-07T15:26:34;25.20;17.70
13198;DHT22;6664;52.514;13.440;2022-08-07T15:29:05;25.10;18.70
13198;DHT22;6664;52.514;13.440;2022-08-07T15:32:00;25.30;17.50
13198;DHT22;6664;52.514;13.440;2022-08-07T15:34:35;25.30;18.10
13198;DHT22;6664;52.514;13.440;2022-08-07T15:37:17;25.20;18.10
13198;DHT22;6664;52.514;13.440;2022-08-07T15:39:57;25.20;18.30
13198;DHT22;6664;52.514;13.440;2022-08-07T15:47:52;24.90;18.70
13198;DHT22;6664;52.514;13.440;2022-08-07T15:50:35;24.80;18.60
13198;DHT22;6664;52.514;13.440;2022-08-07T15:53:28;24.80;18.60
13198;DHT22;6664;52.514;13.440;2022-08-07T15:56:22;26.20;17.70
13198;DHT22;6664;52.514;13.440;2022-08-07T15:58:58;29.20;13.70
13198;DHT22;6664;52.514;13.440;2022-08-07T16:01:30;29.90;11.90
13198;DHT22;6664;52.514;13.440;2022-08-07T16:04:07;28.60;12.10
13198;DHT22;6664;52.514;13.440;2022-08-07T16:06:54;27.70;13.60
13198;DHT22;6664;52.514;13.440;2022-08-07T16:09:49;27.30;14.70
13198;DHT22;6664;52.514;13.440;2022-08-07T16:12:52;26.60;15.60
13198;DHT22;6664;52.514;13.440;2022-08-07T16:15:44;26.80;15.90
13198;DHT22;6664;52.514;13.440;2022-08-07T16:18:40;26.60;15.50
13198;DHT22;6664;52.514;13.440;2022-08-07T16:24:44;25.90;16.60
13198;DHT22;6664;52.514;13.440;2022-08-07T16:27:30;26.50;16.70
13198;DHT22;6664;52.514;13.440;2022-08-07T16:30:15;26.90;15.60
13198;DHT22;6664;52.514;13.440;2022-08-07T16:33:00;26.60;15.60
13198;DHT22;6664;52.514;13.440;2022-08-07T16:36:25;26.50;15.50
13198;DHT22;6664;52.514;13.440;2022-08-07T16:39:11;25.90;15.90
13198;DHT22;6664;52.514;13.440;2022-08-07T16:47:49;26.40;16.60
13198;DHT22;6664;52.514;13.440;2022-08-07T16:53:57;25.30;17.00
13198;DHT22;6664;52.514;13.440;2022-08-07T16:57:13;25.00;18.10
13198;DHT22;6664;52.514;13.440;2022-08-07T17:08:36;23.60;20.10
13198;DHT22;6664;52.514;13.440;2022-08-07T17:15:00;23.20;21.40
13198;DHT22;6664;52.514;13.440;2022-08-07T17:25:33;22.80;21.80
13198;DHT22;6664;52.514;13.440;2022-08-07T17:28:29;22.70;21.90
13198;DHT22;6664;52.514;13.440;2022-08-07T17:34:39;22.60;22.70
13198;DHT22;6664;52.514;13.440;2022-08-07T17:37:42;22.40;23.20
13198;DHT22;6664;52.514;13.440;2022-08-07T17:43:59;22.40;23.20
13198;DHT22;6664;52.514;13.440;2022-08-07T17:46:49;22.40;23.50
13198;DHT22;6664;52.514;13.440;2022-08-07T17:49:32;22.30;23.60
13198;DHT22;6664;52.514;13.440;2022-08-07T17:52:18;22.20;24.00
13198;DHT22;6664;52.514;13.440;2022-08-07T18:00:29;22.10;24.00
13198;DHT22;6664;52.514;13.440;2022-08-07T18:03:26;22.10;24.20
13198;DHT22;6664;52.514;13.440;2022-08-07T18:06:21;22.10;24.10
13198;DHT22;6664;52.514;13.440;2022-08-07T18:09:05;22.00;24.40
13198;DHT22;6664;52.514;13.440;2022-08-07T18:11:49;22.00;24.60
13198;DHT22;6664;52.514;13.440;2022-08-07T18:14:41;21.90;24.90
13198;DHT22;6664;52.514;13.440;2022-08-07T18:20:27;21.80;25.60
13198;DHT22;6664;52.514;13.440;2022-08-07T18:29:18;21.40;26.20
13198;DHT22;6664;52.514;13.440;2022-08-07T18:35:35;21.30;26.90
13198;DHT22;6664;52.514;13.440;2022-08-07T18:38:26;21.20;27.40
13198;DHT22;6664;52.514;13.440;2022-08-07T18:53:45;20.50;29.10
13198;DHT22;6664;52.514;13.440;2022-08-07T18:56:46;20.40;29.20
13198;DHT22;6664;52.514;13.440;2022-08-07T19:05:38;20.20;30.20
13198;DHT22;6664;52.514;13.440;2022-08-07T19:08:44;20.10;30.60
13198;DHT22;6664;52.514;13.440;2022-08-07T19:11:19;19.90;31.10
13198;DHT22;6664;52.514;13.440;2022-08-07T19:14:08;19.90;31.50
13198;DHT22;6664;52.514;13.440;2022-08-07T19:16:51;19.80;31.70
13198;DHT22;6664;52.514;13.440;2022-08-07T19:19:57;19.80;32.10
13198;DHT22;6664;52.514;13.440;2022-08-07T19:25:48;19.60;33.10
13198;DHT22;6664;52.514;13.440;2022-08-07T19:28:37;19.50;33.30
13198;DHT22;6664;52.514;13.440;2022-08-07T19:31:35;19.50;33.40
13198;DHT22;6664;52.514;13.440;2022-08-07T19:34:24;19.40;33.80
13198;DHT22;6664;52.514;13.440;2022-08-07T19:37:00;19.40;34.10
13198;DHT22;6664;52.514;13.440;2022-08-07T19:39:46;19.30;34.10
13198;DHT22;6664;52.514;13.440;2022-08-07T19:42:29;19.20;34.70
13198;DHT22;6664;52.514;13.440;2022-08-07T19:45:02;19.10;35.00
13198;DHT22;6664;52.514;13.440;2022-08-07T19:47:37;19.00;35.60
13198;DHT22;6664;52.514;13.440;2022-08-07T19:50:09;19.00;35.90
13198;DHT22;6664;52.514;13.440;2022-08-07T19:52:56;19.00;36.60
13198;DHT22;6664;52.514;13.440;2022-08-07T19:55:28;19.00;36.30
13198;DHT22;6664;52.514;13.440;2022-08-07T19:58:15;18.90;36.40
13198;DHT22;6664;52.514;13.440;2022-08-07T20:00:55;18.80;36.60
13198;DHT22;6664;52.514;13.440;2022-08-07T20:03:23;18.90;36.70
13198;DHT22;6664;52.514;13.440;2022-08-07T20:06:01;18.80;37.10
13198;DHT22;6664;52.514;13.440;2022-08-07T20:08:32;18.80;37.30
13198;DHT22;6664;52.514;13.440;2022-08-07T20:11:04;18.60;37.20
13198;DHT22;6664;52.514;13.440;2022-08-07T20:13:51;18.60;37.60
13198;DHT22;6664;52.514;13.440;2022-08-07T20:16:26;18.60;37.90
13198;DHT22;6664;52.514;13.440;2022-08-07T20:19:04;18.60;38.20
13198;DHT22;6664;52.514;13.440;2022-08-07T20:21:40;18.60;38.20
13198;DHT22;6664;52.514;13.440;2022-08-07T20:24:25;18.60;38.20
13198;DHT22;6664;52.514;13.440;2022-08-07T20:26:57;18.40;38.20
13198;DHT22;6664;52.514;13.440;2022-08-07T20:29:35;18.40;38.60
13198;DHT22;6664;52.514;13.440;2022-08-07T20:32:25;18.20;39.30
13198;DHT22;6664;52.514;13.440;2022-08-07T20:35:17;18.10;39.50
13198;DHT22;6664;52.514;13.440;2022-08-07T20:37:52;18.00;39.80
13198;DHT22;6664;52.514;13.440;2022-08-07T20:40:36;18.00;40.00
13198;DHT22;6664;52.514;13.440;2022-08-07T20:43:09;18.00;40.70
13198;DHT22;6664;52.514;13.440;2022-08-07T20:45:51;18.00;40.20